Time;durP1;ratioP1;P1;durP2;ratioP2;P2;SDS_P1;SDS_P2;PMS_P1;PMS_P2;Temp;Humidity;BMP_temperature;BMP_pressure;BME280_temperature;BME280_humidity;BME280_pressure;Samples;Min_cycle;Max_cycle;Signal;HPM_P1;HPM_P2
2022/07/15 00:03:13;;;;;;;3.40;1.10;;;;;;;16.36;54.72;98953.23;105926;1274;22687;-84
2022/07/15 00:06:24;;;;;;;5.60;1.10;;;;;;;16.36;54.74;98958.16;106123;1274;22646;-83
2022/07/15 00:08:56;;;;;;;4.40;1.40;;;;;;;16.31;54.71;98960.77;106396;1274;25464;-83
2022/07/15 00:11:26;;;;;;;8.20;0.90;;;;;;;16.27;54.81;98958.48;106313;1274;24225;-84
2022/07/15 00:14:06;;;;;;;5.60;1.00;;;;;;;16.21;54.67;98958.64;106401;1274;25265;-83
2022/07/15 00:16:33;;;;;;;6.20;0.80;;;;;;;16.17;54.51;98963.25;106237;1273;24283;-86
2022/07/15 00:19:08;;;;;;;4.50;0.80;;;;;;;16.15;54.38;98972.21;106196;1274;22541;-87
2022/07/15 00:21:38;;;;;;;5.20;0.70;;;;;;;16.13;54.31;98970.77;106388;1274;22543;-83
2022/07/15 00:24:23;;;;;;;;;;;;;;;;;;;;;
2022/07/15 00:27:18;;;;;;;5.90;0.90;;;;;;;16.13;53.90;98970.42;106173;1274;25532;-86
2022/07/15 00:29:51;;;;;;;6.30;0.80;;;;;;;16.10;54.15;98972.99;106153;1274;25218;-84
2022/07/15 00:32:24;;;;;;;3.70;0.70;;;;;;;16.06;54.08;98972.92;106198;1274;24395;-85
2022/07/15 00:34:55;;;;;;;3.90;0.80;;;;;;;16.02;53.82;98972.19;106102;1274;25222;-85
2022/07/15 00:37:29;;;;;;;4.20;0.70;;;;;;;16.01;53.79;98976.62;106151;1273;23262;-86
2022/07/15 00:40:05;;;;;;;5.60;0.70;;;;;;;16.00;53.85;98975.98;106118;1274;25236;-82
2022/07/15 00:42:46;;;;;;;3.60;0.60;;;;;;;15.99;53.69;98983.11;106133;1274;22540;-85
2022/07/15 00:45:20;;;;;;;5.60;0.50;;;;;;;16.04;53.76;98987.35;106459;1274;24236;-86
2022/07/15 00:51:46;;;;;;;3.70;0.40;;;;;;;16.00;53.43;98989.81;105779;1281;22656;-84
2022/07/15 00:54:22;;;;;;;3.20;0.40;;;;;;;15.97;53.51;98983.61;105747;1281;25703;-84
2022/07/15 00:56:55;;;;;;;3.40;0.60;;;;;;;15.94;53.40;98984.80;105446;1281;22716;-86
2022/07/15 00:59:31;;;;;;;4.90;0.60;;;;;;;15.92;53.26;98989.33;105675;1281;24567;-86
2022/07/15 01:01:58;;;;;;;3.00;0.50;;;;;;;15.89;53.49;98990.27;105691;1281;22766;-88
2022/07/15 01:04:29;;;;;;;6.40;0.80;;;;;;;15.88;53.32;98990.43;105628;1281;22715;-87
2022/07/15 01:06:59;;;;;;;2.60;0.60;;;;;;;15.87;53.31;98994.98;105626;1282;22538;-80
2022/07/15 01:09:49;;;;;;;2.90;0.50;;;;;;;15.86;53.27;98995.49;105330;1280;24077;-83
2022/07/15 01:12:23;;;;;;;3.90;0.60;;;;;;;15.83;53.34;98998.10;105442;1281;23263;-84
2022/07/15 01:15:16;;;;;;;4.60;0.60;;;;;;;15.79;53.34;98999.23;104971;1284;25311;-81
2022/07/15 01:17:45;;;;;;;5.10;0.60;;;;;;;15.74;53.38;98998.73;105119;1285;25229;-83
2022/07/15 01:20:16;;;;;;;6.70;0.60;;;;;;;15.70;53.27;99003.45;105431;1284;26681;-88
2022/07/15 01:23:02;;;;;;;3.20;0.60;;;;;;;15.64;53.32;99000.07;105490;1284;25471;-84
2022/07/15 01:26:15;;;;;;;4.80;0.90;;;;;;;15.56;53.36;98999.48;104869;1288;25485;-85
2022/07/15 01:28:52;;;;;;;3.10;0.80;;;;;;;15.51;53.28;99001.27;104932;1282;22555;-82
2022/07/15 01:31:21;;;;;;;4.70;0.70;;;;;;;15.46;53.33;99001.59;105205;1282;22702;-84
2022/07/15 01:34:01;;;;;;;6.10;1.00;;;;;;;15.40;53.31;99002.77;105485;1283;22551;-84
2022/07/15 01:36:34;;;;;;;6.90;0.80;;;;;;;15.35;53.39;99000.06;105141;1283;22862;-84
2022/07/15 01:39:12;;;;;;;7.00;0.80;;;;;;;15.28;53.32;99003.72;105551;1283;24306;-85
2022/07/15 01:42:02;;;;;;;3.90;0.70;;;;;;;15.23;53.49;99006.37;105393;1283;22548;-86
2022/07/15 01:44:41;;;;;;;5.50;0.90;;;;;;;15.15;53.48;99009.42;105596;1283;22537;-84
2022/07/15 01:47:21;;;;;;;4.10;0.80;;;;;;;15.07;53.54;99009.39;105701;1280;22569;-84
2022/07/15 01:49:59;;;;;;;5.60;0.80;;;;;;;15.02;53.57;99009.36;105672;1279;22543;-83
2022/07/15 01:52:51;;;;;;;2.70;0.60;;;;;;;14.96;53.53;99009.98;105726;1278;22991;-85
2022/07/15 01:55:26;;;;;;;4.20;0.80;;;;;;;14.92;53.59;99007.46;105711;1278;22544;-86
2022/07/15 01:58:04;;;;;;;5.10;0.80;;;;;;;14.86;53.61;99004.30;105943;1274;22565;-88
2022/07/15 02:00:44;;;;;;;3.80;0.90;;;;;;;14.83;53.64;99012.67;106240;1273;25612;-82
2022/07/15 02:03:19;;;;;;;5.80;0.60;;;;;;;14.79;53.71;99013.20;106034;1274;25232;-86
2022/07/15 02:06:03;;;;;;;3.40;0.80;;;;;;;14.76;53.65;99016.02;106094;1274;23165;-86
2022/07/15 02:08:35;;;;;;;3.00;0.70;;;;;;;14.73;53.68;99017.04;106219;1273;22541;-82
2022/07/15 02:11:14;;;;;;;5.80;0.50;;;;;;;14.71;53.61;99024.39;106190;1272;25485;-83
2022/07/15 02:14:00;;;;;;;4.80;0.80;;;;;;;14.71;53.75;99020.63;106165;1274;25620;-85
2022/07/15 02:20:38;;;;;;;4.50;0.80;;;;;;;14.55;53.78;99027.58;105890;1278;22700;-85
2022/07/15 02:23:24;;;;;;;;;;;;;;;;;;;;;
2022/07/15 02:26:11;;;;;;;7.80;0.90;;;;;;;14.37;53.95;99034.31;105693;1278;22572;-84
2022/07/15 02:28:59;;;;;;;5.50;0.90;;;;;;;14.32;53.92;99037.31;105791;1277;22564;-88
2022/07/15 02:31:37;;;;;;;3.90;0.70;;;;;;;14.26;54.06;99043.54;105642;1278;22704;-84
2022/07/15 02:34:12;;;;;;;4.50;0.70;;;;;;;14.23;54.09;99043.28;105661;1278;22872;-86
2022/07/15 02:36:47;;;;;;;4.50;0.70;;;;;;;14.20;54.06;99045.35;105700;1278;22570;-83
2022/07/15 02:39:19;;;;;;;5.70;0.70;;;;;;;14.18;54.13;99052.83;105724;1279;26446;-83
2022/07/15 02:42:01;;;;;;;4.90;0.80;;;;;;;14.16;54.10;99054.08;105800;1280;22731;-83
2022/07/15 02:44:34;;;;;;;5.40;0.90;;;;;;;14.12;54.22;99053.90;105920;1278;22556;-84
2022/07/15 02:47:09;;;;;;;4.50;0.70;;;;;;;14.08;54.33;99057.52;105687;1278;22737;-86
2022/07/15 02:50:22;;;;;;;5.30;0.80;;;;;;;14.03;54.30;99061.98;105689;1274;24283;-87
2022/07/15 02:53:20;;;;;;;6.50;0.80;;;;;;;13.97;54.37;99062.91;106289;1274;25387;-82
2022/07/15 02:56:06;;;;;;;5.90;1.00;;;;;;;13.91;54.42;99069.85;106193;1274;22704;-84
2022/07/15 02:58:49;;;;;;;2.50;0.50;;;;;;;13.88;54.50;99069.08;106041;1274;23887;-85
2022/07/15 03:01:43;;;;;;;3.30;0.70;;;;;;;13.87;54.48;99074.71;106410;1274;22541;-86
2022/07/15 03:04:34;;;;;;;3.10;0.60;;;;;;;13.87;54.55;99078.84;106445;1274;22540;-83
2022/07/15 03:07:08;;;;;;;4.40;0.50;;;;;;;13.84;54.52;99082.26;106148;1274;25197;-85
2022/07/15 03:10:02;;;;;;;5.10;0.60;;;;;;;13.82;54.60;99086.64;106338;1274;22716;-84
2022/07/15 03:13:15;;;;;;;4.40;0.70;;;;;;;13.78;54.66;99089.19;106163;1274;24214;-87
2022/07/15 03:17:26;;;;;;;3.60;0.80;;;;;;;13.75;54.77;99088.25;106096;1275;22595;-86
2022/07/15 03:29:17;;;;;;;;;;;;;;;;;;;;;
2022/07/15 03:36:37;;;;;;;4.10;0.80;;;;;;;13.57;55.11;99111.80;105365;1282;25029;-83
2022/07/15 03:39:24;;;;;;;;;;;;;;;;;;;;;
2022/07/15 03:42:25;;;;;;;5.00;0.60;;;;;;;13.60;55.24;99125.11;105963;1274;24286;-86
2022/07/15 03:44:58;;;;;;;3.00;0.50;;;;;;;13.65;55.27;99132.20;106100;1274;22565;-86
2022/07/15 03:47:40;;;;;;;6.30;0.70;;;;;;;13.66;55.28;99135.85;105995;1275;22540;-83
2022/07/15 03:54:08;;;;;;;3.10;0.60;;;;;;;13.68;55.42;99141.02;106226;1273;24266;-86
2022/07/15 03:57:49;;;;;;;5.70;0.70;;;;;;;13.70;55.33;99144.60;105916;1276;22563;-85
2022/07/15 04:00:24;;;;;;;3.70;0.70;;;;;;;13.71;55.36;99150.95;105992;1275;25280;-83
2022/07/15 04:02:57;;;;;;;4.50;0.60;;;;;;;13.73;55.46;99152.05;105996;1273;25198;-83
2022/07/15 04:05:36;;;;;;;3.30;0.60;;;;;;;13.77;55.45;99154.06;106015;1273;26593;-85
2022/07/15 04:08:11;;;;;;;5.10;0.70;;;;;;;13.78;55.41;99158.39;106215;1273;25354;-82
2022/07/15 04:12:15;;;;;;;3.30;0.50;;;;;;;13.83;55.38;99160.98;105802;1279;24180;-86
2022/07/15 04:14:47;;;;;;;3.20;0.70;;;;;;;13.87;55.36;99161.69;105800;1279;24246;-82
2022/07/15 04:17:30;;;;;;;4.40;0.60;;;;;;;13.93;55.53;99162.95;105759;1279;22799;-82
2022/07/15 04:20:03;;;;;;;3.40;0.60;;;;;;;13.98;55.58;99163.73;105717;1279;22671;-81
2022/07/15 04:22:46;;;;;;;6.70;1.00;;;;;;;14.03;55.39;99170.15;105727;1279;25312;-83
2022/07/15 04:25:19;;;;;;;3.60;0.90;;;;;;;14.04;55.52;99173.77;105739;1279;22580;-82
2022/07/15 04:27:55;;;;;;;7.20;1.30;;;;;;;14.11;55.56;99172.52;105831;1279;23929;-83
2022/07/15 04:30:31;;;;;;;3.90;0.70;;;;;;;14.20;55.73;99171.52;105761;1279;24419;-85
2022/07/15 04:33:04;;;;;;;5.50;1.10;;;;;;;14.27;55.55;99174.91;105773;1279;22552;-84
2022/07/15 04:35:37;;;;;;;7.30;0.70;;;;;;;14.30;55.60;99179.96;105840;1279;22558;-82
2022/07/15 04:38:26;;;;;;;6.10;0.90;;;;;;;14.37;55.83;99179.77;105581;1282;22521;-82
2022/07/15 04:40:57;;;;;;;6.90;0.90;;;;;;;14.41;55.69;99182.46;105185;1283;24088;-84
2022/07/15 04:47:17;;;;;;;7.00;0.80;;;;;;;14.56;55.96;99185.45;105225;1283;22841;-82
2022/07/15 04:52:50;;;;;;;6.30;0.90;;;;;;;14.69;56.06;99185.83;105786;1279;24279;-86
2022/07/15 04:55:23;;;;;;;8.90;0.90;;;;;;;14.79;56.10;99186.67;105701;1278;24214;-82
2022/07/15 04:58:00;;;;;;;6.80;0.90;;;;;;;14.92;56.09;99192.08;105950;1278;22555;-82
2022/07/15 05:01:00;;;;;;;8.60;0.80;;;;;;;15.04;56.12;99192.21;105779;1280;22571;-84
2022/07/15 05:03:27;;;;;;;7.00;0.80;;;;;;;15.28;55.84;99196.21;105782;1279;24248;-86
2022/07/15 05:05:55;;;;;;;5.60;0.70;;;;;;;15.45;55.93;99196.31;105556;1279;24303;-82
2022/07/15 05:08:44;;;;;;;6.90;0.80;;;;;;;15.65;55.82;99196.80;105760;1280;22893;-83
2022/07/15 05:11:38;;;;;;;6.40;0.70;;;;;;;15.75;55.83;99199.21;105745;1279;22550;-85
2022/07/15 05:14:22;;;;;;;5.50;0.70;;;;;;;15.85;56.00;99207.36;105805;1280;24422;-87
2022/07/15 05:16:49;;;;;;;5.00;0.70;;;;;;;15.87;55.84;99205.17;105889;1273;23913;-85
2022/07/15 05:19:22;;;;;;;9.00;1.10;;;;;;;15.79;55.67;99210.39;106124;1274;22553;-82
2022/07/15 05:21:52;;;;;;;7.70;0.90;;;;;;;15.72;55.80;99215.77;106116;1274;24279;-82
2022/07/15 05:24:23;;;;;;;7.50;1.00;;;;;;;15.70;55.93;99217.95;106076;1274;22554;-83
2022/07/15 05:27:02;;;;;;;4.60;0.70;;;;;;;15.66;56.03;99218.42;106115;1274;23913;-83
2022/07/15 05:29:34;;;;;;;9.20;0.90;;;;;;;15.60;55.96;99217.55;106227;1273;24776;-83
2022/07/15 05:32:05;;;;;;;8.50;1.10;;;;;;;15.54;56.07;99222.04;106388;1273;25576;-84
2022/07/15 05:34:38;;;;;;;9.60;0.80;;;;;;;15.51;56.01;99221.57;106110;1274;22576;-83
2022/07/15 05:37:39;;;;;;;7.10;0.80;;;;;;;15.49;56.04;99221.45;106152;1274;22637;-84
2022/07/15 05:40:14;;;;;;;5.30;0.80;;;;;;;15.46;55.92;99222.58;106030;1273;24209;-85
2022/07/15 05:42:53;;;;;;;6.10;0.80;;;;;;;15.47;56.09;99226.41;106138;1273;25209;-82
2022/07/15 05:45:45;;;;;;;7.60;0.70;;;;;;;15.52;56.13;99229.55;106200;1273;25238;-84
2022/07/15 05:48:18;;;;;;;6.70;0.80;;;;;;;15.54;56.14;99228.70;106168;1273;22661;-81
2022/07/15 05:51:11;;;;;;;3.90;0.80;;;;;;;15.58;56.18;99236.94;106083;1273;22536;-82
2022/07/15 05:53:51;;;;;;;7.40;0.70;;;;;;;15.55;55.94;99241.11;105782;1274;25354;-84
2022/07/15 05:57:07;;;;;;;8.30;0.80;;;;;;;15.59;56.29;99243.88;106074;1273;22554;-86
2022/07/15 05:59:43;;;;;;;4.90;0.80;;;;;;;15.71;56.31;99242.02;106090;1273;22568;-84
2022/07/15 06:02:18;;;;;;;9.60;1.00;;;;;;;15.84;56.24;99241.27;105853;1273;22588;-83
2022/07/15 06:04:48;;;;;;;8.20;0.80;;;;;;;15.93;56.34;99240.59;106016;1273;24499;-83
2022/07/15 06:07:26;;;;;;;5.80;0.70;;;;;;;16.12;56.30;99241.23;105955;1274;22661;-86
2022/07/15 06:10:46;;;;;;;4.10;0.70;;;;;;;16.39;56.27;99241.13;106410;1273;22550;-81
2022/07/15 06:13:20;;;;;;;4.30;0.90;;;;;;;16.68;56.06;99240.29;106042;1274;22521;-83
2022/07/15 06:15:58;;;;;;;3.70;0.70;;;;;;;16.82;56.09;99248.27;106121;1274;22560;-83
2022/07/15 06:18:35;;;;;;;6.90;0.90;;;;;;;16.98;56.03;99246.25;106029;1273;23177;-83
2022/07/15 06:21:46;;;;;;;3.30;0.60;;;;;;;17.03;55.97;99250.06;106192;1276;24349;-84
2022/07/15 06:24:23;;;;;;;6.30;0.90;;;;;;;17.09;55.86;99250.42;105755;1279;23372;-84
2022/07/15 06:27:01;;;;;;;7.10;1.00;;;;;;;17.03;55.58;99250.62;105862;1279;22565;-83
2022/07/15 06:29:37;;;;;;;6.20;0.70;;;;;;;16.86;55.43;99254.35;105728;1277;22537;-84
2022/07/15 06:32:26;;;;;;;4.80;0.70;;;;;;;16.78;55.79;99256.21;105774;1277;22537;-83
2022/07/15 06:35:07;;;;;;;7.30;0.80;;;;;;;17.00;55.66;99253.80;105731;1279;26506;-86
2022/07/15 06:37:39;;;;;;;4.30;0.80;;;;;;;17.12;55.42;99253.34;105918;1277;23907;-81
2022/07/15 06:40:15;;;;;;;5.00;1.00;;;;;;;17.31;55.58;99254.17;105686;1279;22580;-89
2022/07/15 06:42:55;;;;;;;4.30;0.70;;;;;;;17.50;55.39;99251.05;105791;1276;22556;-85
2022/07/15 06:45:53;;;;;;;9.20;0.80;;;;;;;17.84;55.64;99250.09;105898;1278;23914;-83
2022/07/15 06:48:25;;;;;;;5.60;0.80;;;;;;;18.12;55.29;99249.33;105890;1277;24332;-83
2022/07/15 06:51:02;;;;;;;4.60;0.90;;;;;;;18.03;55.02;99248.36;105976;1279;22528;-83
2022/07/15 06:53:42;;;;;;;3.90;0.80;;;;;;;17.94;54.87;99257.73;106048;1274;23332;-84
2022/07/15 06:56:23;;;;;;;4.60;0.70;;;;;;;17.91;55.03;99252.99;106059;1274;22603;-88
2022/07/15 06:59:00;;;;;;;4.10;0.70;;;;;;;17.79;54.73;99259.59;106049;1273;22702;-87
2022/07/15 07:01:37;;;;;;;4.00;0.70;;;;;;;17.72;54.74;99257.60;106106;1274;22694;-85
2022/07/15 07:04:26;;;;;;;6.70;1.00;;;;;;;17.69;54.85;99259.99;106319;1274;24379;-84
2022/07/15 07:07:05;;;;;;;2.50;0.70;;;;;;;17.57;54.87;99259.94;106137;1274;25286;-88
2022/07/15 07:09:41;;;;;;;10.40;1.60;;;;;;;17.78;54.89;99255.01;106006;1274;23196;-83
2022/07/15 07:12:11;;;;;;;3.00;0.80;;;;;;;17.90;54.91;99255.31;106116;1273;25245;-87
2022/07/15 07:14:47;;;;;;;4.80;0.60;;;;;;;17.89;54.71;99257.77;106079;1273;22527;-88
2022/07/15 07:17:19;;;;;;;4.40;0.80;;;;;;;17.69;54.91;99258.75;106098;1274;22687;-85
2022/07/15 07:19:59;;;;;;;2.80;0.70;;;;;;;17.49;54.89;99262.49;106518;1274;24003;-81
2022/07/15 07:22:44;;;;;;;5.30;1.10;;;;;;;17.40;55.13;99265.23;106114;1273;23290;-82
2022/07/15 07:25:38;;;;;;;5.40;1.00;;;;;;;17.84;55.22;99266.86;106105;1274;22764;-83
2022/07/15 07:28:52;;;;;;;;;;;;;;;;;;;;;
2022/07/15 07:31:26;;;;;;;4.10;1.00;;;;;;;17.94;54.17;99270.16;106091;1274;24294;-86
2022/07/15 07:39:26;;;;;;;6.70;1.20;;;;;;;18.82;54.10;99261.48;105815;1281;22654;-83
2022/07/15 07:42:04;;;;;;;4.00;0.80;;;;;;;19.40;53.73;99255.10;105743;1281;22648;-83
2022/07/15 07:44:43;;;;;;;4.60;0.90;;;;;;;19.73;52.96;99260.09;105591;1281;22739;-85
2022/07/15 07:47:24;;;;;;;10.10;1.20;;;;;;;19.38;52.90;99257.26;105674;1282;22542;-83
2022/07/15 07:49:54;;;;;;;7.40;1.00;;;;;;;19.01;52.97;99266.02;105705;1281;24319;-84
2022/07/15 07:52:21;;;;;;;8.00;0.80;;;;;;;19.15;53.17;99266.92;105699;1281;22566;-92
2022/07/15 07:54:51;;;;;;;4.30;0.80;;;;;;;19.24;52.13;99267.44;105504;1281;24454;-88
2022/07/15 07:57:18;;;;;;;4.70;0.70;;;;;;;19.35;52.21;99267.80;105739;1282;25240;-83
2022/07/15 07:59:58;;;;;;;2.70;0.50;;;;;;;19.59;52.95;99261.00;105766;1281;23312;-84
2022/07/15 08:06:39;;;;;;;3.30;0.60;;;;;;;19.66;51.75;99266.94;105194;1284;25217;-84
2022/07/15 08:09:16;;;;;;;3.70;0.60;;;;;;;19.91;51.91;99267.45;105390;1285;25507;-82
2022/07/15 08:11:46;;;;;;;4.30;0.50;;;;;;;19.61;51.45;99273.39;105298;1285;22558;-80
2022/07/15 08:14:18;;;;;;;10.90;0.60;;;;;;;19.16;51.70;99278.88;105203;1280;24807;-82
2022/07/15 08:16:51;;;;;;;3.00;0.60;;;;;;;18.87;51.67;99282.84;105671;1279;25461;-84
2022/07/15 08:19:26;;;;;;;3.60;0.50;;;;;;;18.93;51.74;99282.52;105701;1280;22544;-87
2022/07/15 08:22:01;;;;;;;5.10;0.60;;;;;;;19.24;51.59;99278.95;105740;1279;25336;-84
2022/07/15 08:24:36;;;;;;;3.60;0.40;;;;;;;19.49;50.87;99279.05;105702;1279;24064;-88
2022/07/15 08:27:09;;;;;;;4.30;0.50;;;;;;;19.18;50.25;99275.42;105433;1280;25230;-86
2022/07/15 08:29:47;;;;;;;3.60;0.60;;;;;;;18.95;50.61;99279.95;105776;1280;23984;-85
2022/07/15 08:32:17;;;;;;;4.30;0.70;;;;;;;19.02;50.41;99279.95;105697;1279;25172;-83
2022/07/15 08:34:47;;;;;;;4.90;0.60;;;;;;;19.35;50.87;99278.70;105759;1281;24422;-86
2022/07/15 08:37:17;;;;;;;2.30;0.40;;;;;;;19.71;50.70;99270.58;105797;1280;25420;-82
2022/07/15 08:39:50;;;;;;;4.80;0.70;;;;;;;20.05;49.97;99271.77;105509;1283;23344;-85
2022/07/15 08:42:18;;;;;;;2.30;0.70;;;;;;;20.38;50.71;99271.45;105765;1274;25495;-85
2022/07/15 08:44:47;;;;;;;2.60;0.60;;;;;;;20.23;49.96;99272.27;106179;1274;25240;-85
2022/07/15 08:47:21;;;;;;;4.10;0.50;;;;;;;19.88;49.89;99271.58;106172;1274;22734;-83
2022/07/15 08:49:54;;;;;;;6.60;0.70;;;;;;;20.09;50.43;99266.48;106098;1274;23918;-82
2022/07/15 08:52:31;;;;;;;2.70;0.40;;;;;;;20.48;50.20;99268.86;106188;1274;22551;-88
2022/07/15 08:54:58;;;;;;;3.50;0.40;;;;;;;20.57;49.96;99268.89;106328;1274;25558;-83
2022/07/15 08:57:26;;;;;;;2.70;0.40;;;;;;;20.47;50.01;99273.71;106056;1274;22536;-81
2022/07/15 09:00:02;;;;;;;3.40;0.40;;;;;;;20.37;49.98;99273.38;106114;1274;25459;-82
2022/07/15 09:02:32;;;;;;;5.40;0.70;;;;;;;20.64;50.28;99278.48;106400;1274;24200;-87
2022/07/15 09:05:36;;;;;;;3.30;0.70;;;;;;;20.74;49.02;99279.04;106391;1274;22528;-84
2022/07/15 09:08:10;;;;;;;4.30;0.50;;;;;;;20.67;49.02;99280.33;105944;1278;24828;-88
2022/07/15 09:10:45;;;;;;;2.50;0.70;;;;;;;20.73;48.12;99282.59;105873;1280;25351;-84
2022/07/15 09:13:25;;;;;;;3.80;0.50;;;;;;;20.33;47.36;99285.92;105851;1279;22909;-85
2022/07/15 09:16:13;;;;;;;3.40;0.40;;;;;;;19.81;48.86;99286.84;105905;1280;22619;-83
2022/07/15 09:18:43;;;;;;;4.10;1.00;;;;;;;19.82;49.27;99293.95;105776;1281;22543;-83
2022/07/15 09:21:28;;;;;;;4.60;0.50;;;;;;;20.34;49.10;99290.54;105904;1279;24251;-83
2022/07/15 09:24:20;;;;;;;3.20;0.50;;;;;;;20.72;48.33;99289.23;105801;1280;25291;-81
2022/07/15 09:26:52;;;;;;;5.10;0.70;;;;;;;20.73;48.13;99284.83;105799;1282;25325;-82
2022/07/15 09:38:03;;;;;;;4.70;0.50;;;;;;;19.24;48.16;99300.79;105836;1280;22525;-82
2022/07/15 09:40:33;;;;;;;5.20;0.50;;;;;;;19.09;48.33;99302.82;105998;1280;22722;-80
2022/07/15 09:43:06;;;;;;;3.80;0.50;;;;;;;19.04;48.32;99304.69;105960;1274;24248;-83
2022/07/15 09:45:37;;;;;;;4.90;0.50;;;;;;;19.15;48.30;99301.88;106438;1274;25398;-81
2022/07/15 09:48:09;;;;;;;6.20;0.50;;;;;;;19.13;48.39;99298.96;106226;1274;22555;-83
2022/07/15 09:50:42;;;;;;;4.10;0.60;;;;;;;19.13;47.83;99305.83;106335;1274;26517;-81
2022/07/15 09:53:14;;;;;;;4.50;0.70;;;;;;;19.07;48.24;99303.48;106156;1274;23331;-83
2022/07/15 09:55:47;;;;;;;4.20;0.50;;;;;;;19.48;48.21;99303.46;106310;1274;24238;-82
2022/07/15 09:58:21;;;;;;;4.50;0.50;;;;;;;20.01;47.80;99294.59;106287;1274;24461;-82
2022/07/15 10:00:54;;;;;;;5.10;0.50;;;;;;;20.54;48.13;99290.55;105977;1276;22538;-84
2022/07/15 10:03:26;;;;;;;3.10;0.50;;;;;;;20.80;47.96;99290.02;105856;1274;22529;-83
2022/07/15 10:05:56;;;;;;;3.00;0.60;;;;;;;20.73;47.61;99302.27;105970;1274;25446;-82
2022/07/15 10:08:34;;;;;;;5.10;0.50;;;;;;;20.56;47.14;99311.24;105876;1276;22536;-87
2022/07/15 10:11:09;;;;;;;4.80;0.60;;;;;;;20.26;46.87;99308.17;105893;1276;22607;-86
2022/07/15 10:14:08;;;;;;;5.60;0.50;;;;;;;20.02;46.36;99310.90;105835;1276;22545;-82
2022/07/15 10:17:32;;;;;;;2.70;0.50;;;;;;;19.85;47.22;99313.66;106119;1274;22662;-84
2022/07/15 10:20:07;;;;;;;4.40;0.50;;;;;;;19.81;46.92;99311.97;106043;1274;25278;-82
2022/07/15 10:22:55;;;;;;;3.80;0.60;;;;;;;19.73;47.21;99310.95;106367;1274;24771;-86
2022/07/15 10:26:05;;;;;;;3.80;0.60;;;;;;;19.70;46.67;99313.52;105994;1276;25749;-82
2022/07/15 10:28:57;;;;;;;4.10;0.50;;;;;;;19.49;46.95;99313.73;105909;1276;22687;-85
2022/07/15 10:31:31;;;;;;;2.80;0.50;;;;;;;19.42;46.40;99316.74;106236;1277;22628;-84
2022/07/15 10:34:09;;;;;;;5.10;0.60;;;;;;;19.39;45.46;99318.85;105872;1277;22568;-82
2022/07/15 10:37:10;;;;;;;4.40;0.50;;;;;;;19.35;45.43;99317.84;106517;1273;22556;-82
2022/07/15 10:40:14;;;;;;;5.30;1.00;;;;;;;19.69;46.53;99310.48;106369;1273;22631;-85
2022/07/15 10:43:01;;;;;;;2.70;0.50;;;;;;;20.59;46.13;99302.16;106125;1277;24387;-81
2022/07/15 10:49:46;;;;;;;6.30;0.70;;;;;;;20.55;45.17;99301.27;106003;1276;22545;-87
2022/07/15 10:52:48;;;;;;;4.30;0.50;;;;;;;20.31;44.97;99312.19;106636;1274;25297;-82
2022/07/15 10:55:33;;;;;;;4.20;0.50;;;;;;;19.94;44.87;99315.94;106194;1274;22598;-82
2022/07/15 10:58:32;;;;;;;4.10;0.60;;;;;;;19.72;45.20;99318.81;106272;1274;25316;-82
2022/07/15 11:01:43;;;;;;;7.20;0.70;;;;;;;19.73;45.58;99315.97;106570;1273;23970;-81
2022/07/15 11:04:46;;;;;;;4.40;0.60;;;;;;;20.02;45.66;99308.56;106747;1274;26246;-87
2022/07/15 11:07:38;;;;;;;8.30;0.80;;;;;;;20.37;45.62;99308.30;106986;1275;22895;-84
2022/07/15 11:10:11;;;;;;;2.70;0.50;;;;;;;20.37;45.05;99311.36;106335;1276;24283;-82
2022/07/15 11:12:59;;;;;;;4.90;0.70;;;;;;;20.28;45.20;99314.36;106002;1274;22557;-87
2022/07/15 11:15:32;;;;;;;4.30;0.60;;;;;;;20.05;44.71;99312.10;106202;1274;22532;-88
2022/07/15 11:18:00;;;;;;;2.60;0.50;;;;;;;19.71;44.31;99310.79;105957;1274;22534;-85
2022/07/15 11:20:38;;;;;;;6.50;0.60;;;;;;;19.75;45.28;99305.89;106484;1274;25328;-78
2022/07/15 11:23:29;;;;;;;3.40;0.70;;;;;;;19.92;45.09;99296.48;106338;1274;25600;-82
2022/07/15 11:26:23;;;;;;;4.80;0.50;;;;;;;19.97;44.41;99294.63;104137;1274;22642;-84
2022/07/15 11:29:09;;;;;;;2.50;0.60;;;;;;;19.94;43.25;99302.23;106208;1273;22574;-84
2022/07/15 11:31:43;;;;;;;7.30;0.80;;;;;;;20.24;44.47;99296.28;106032;1274;26487;-79
2022/07/15 11:34:39;;;;;;;6.10;0.60;;;;;;;20.95;45.16;99284.64;106058;1277;22557;-83
2022/07/15 11:37:36;;;;;;;3.70;0.70;;;;;;;21.36;44.14;99283.64;106621;1273;22558;-81
2022/07/15 11:46:38;;;;;;;4.70;0.60;;;;;;;21.20;43.61;99287.61;106348;1274;25772;-83
2022/07/15 11:49:53;;;;;;;3.60;0.50;;;;;;;21.08;43.75;99295.77;106699;1271;22538;-85
2022/07/15 11:52:27;;;;;;;5.40;0.70;;;;;;;21.02;44.01;99299.02;106315;1274;22534;-83
2022/07/15 11:55:08;;;;;;;4.70;0.50;;;;;;;21.28;44.58;99293.80;106153;1274;25607;-85
2022/07/15 11:57:51;;;;;;;5.40;0.60;;;;;;;21.54;43.41;99291.94;106316;1274;25479;-82
2022/07/15 12:01:31;;;;;;;;;;;;;;;;;;;;;
2022/07/15 12:04:42;;;;;;;4.10;0.50;;;;;;;22.11;43.58;99287.73;106125;1279;23194;-81
2022/07/15 12:07:20;;;;;;;3.90;0.80;;;;;;;21.92;43.88;99286.02;106303;1280;25409;-82
2022/07/15 12:09:57;;;;;;;3.90;0.50;;;;;;;21.79;43.61;99286.82;105654;1280;22534;-80
2022/07/15 12:12:27;;;;;;;5.60;0.50;;;;;;;21.54;43.26;99291.98;105835;1279;23195;-86
2022/07/15 12:14:56;;;;;;;2.90;0.60;;;;;;;21.31;43.56;99295.13;105791;1281;23449;-85
2022/07/15 12:17:27;;;;;;;5.90;0.60;;;;;;;21.11;42.77;99295.92;105875;1280;24278;-82
2022/07/15 12:20:00;;;;;;;3.60;0.60;;;;;;;20.95;43.43;99297.17;105717;1281;22539;-81
2022/07/15 12:22:37;;;;;;;3.90;0.50;;;;;;;20.78;43.16;99291.07;105565;1279;23038;-81
2022/07/15 12:25:20;;;;;;;2.00;0.40;;;;;;;20.65;42.62;99291.27;105592;1281;23058;-84
2022/07/15 12:27:52;;;;;;;4.00;0.70;;;;;;;20.57;42.83;99289.61;105576;1281;22563;-86
2022/07/15 12:30:39;;;;;;;5.00;0.70;;;;;;;20.49;42.64;99286.53;105888;1280;22850;-78
2022/07/15 12:33:17;;;;;;;4.80;0.70;;;;;;;20.59;43.15;99292.77;106256;1279;26740;-83
2022/07/15 12:35:49;;;;;;;4.30;0.70;;;;;;;21.01;43.22;99291.21;105715;1280;24307;-85
2022/07/15 12:38:34;;;;;;;7.80;0.90;;;;;;;21.03;42.94;99283.73;105555;1279;22636;-87
2022/07/15 12:41:06;;;;;;;7.00;0.80;;;;;;;20.85;42.98;99286.86;105787;1277;22608;-84
2022/07/15 12:44:01;;;;;;;7.40;1.00;;;;;;;20.81;42.80;99289.34;105902;1274;25451;-83
2022/07/15 12:47:04;;;;;;;3.30;0.60;;;;;;;20.73;42.77;99285.64;105896;1277;22569;-84
2022/07/15 12:49:51;;;;;;;6.00;1.30;;;;;;;20.53;42.40;99294.04;105707;1281;22527;-87
2022/07/15 12:52:48;;;;;;;4.60;0.70;;;;;;;20.34;42.41;99286.13;105707;1280;24479;-82
2022/07/15 12:55:19;;;;;;;6.50;0.80;;;;;;;20.23;42.78;99286.01;106113;1280;24397;-85
2022/07/15 12:57:47;;;;;;;4.20;0.90;;;;;;;20.25;42.68;99289.84;105736;1280;24216;-82
2022/07/15 13:00:22;;;;;;;5.50;0.70;;;;;;;20.20;42.40;99288.71;105631;1280;23083;-84
2022/07/15 13:02:59;;;;;;;2.40;0.50;;;;;;;20.20;42.43;99290.50;105683;1280;25484;-85
2022/07/15 13:05:47;;;;;;;6.20;0.70;;;;;;;20.40;42.58;99291.33;106007;1280;22550;-87
2022/07/15 13:08:20;;;;;;;4.30;0.50;;;;;;;20.61;42.87;99288.85;105982;1280;22587;-83
2022/07/15 13:10:49;;;;;;;3.40;0.60;;;;;;;20.71;42.43;99288.02;105997;1280;21983;-83
2022/07/15 13:13:20;;;;;;;3.50;0.70;;;;;;;20.77;43.00;99290.84;105809;1281;25428;-83
2022/07/15 13:15:51;;;;;;;5.00;0.70;;;;;;;20.85;42.55;99292.89;105898;1281;22563;-84
2022/07/15 13:18:18;;;;;;;4.40;0.70;;;;;;;20.80;42.10;99298.06;105777;1280;24215;-88
2022/07/15 13:20:48;;;;;;;4.60;0.70;;;;;;;20.84;42.07;99292.97;105809;1280;22552;-86
2022/07/15 13:23:18;;;;;;;4.50;0.60;;;;;;;20.97;42.24;99287.67;105704;1282;22820;-86
2022/07/15 13:25:47;;;;;;;5.00;0.80;;;;;;;20.95;41.81;99290.61;105962;1274;22475;-84
2022/07/15 13:28:16;;;;;;;3.80;0.60;;;;;;;21.02;41.52;99286.55;105920;1276;22565;-86
2022/07/15 13:30:44;;;;;;;4.20;1.40;;;;;;;21.21;42.02;99285.15;105834;1278;25279;-84
2022/07/15 13:33:11;;;;;;;5.80;0.50;;;;;;;21.60;42.42;99279.90;106053;1277;22647;-85
2022/07/15 13:35:41;;;;;;;6.10;1.00;;;;;;;21.72;41.77;99280.46;105774;1279;22534;-84
2022/07/15 13:38:08;;;;;;;3.60;0.60;;;;;;;21.51;41.69;99290.09;106195;1273;22615;-84